Time;durP1;ratioP1;P1;durP2;ratioP2;P2;SDS_P1;SDS_P2;PMS_P1;PMS_P2;Temp;Humidity;BMP_temperature;BMP_pressure;BME280_temperature;BME280_humidity;BME280_pressure;Samples;Min_cycle;Max_cycle;Signal;HPM_P1;HPM_P2
2024/01/28 00:01:56;;;;;;;;;39.50;28.50;;;;;-144.24;100.00;114865.94;5076918;27;45430;-70
2024/01/28 00:04:21;;;;;;;;;31.00;24.75;;;;;-144.24;100.00;114865.94;5079014;27;45425;-70
2024/01/28 00:06:46;;;;;;;;;31.75;30.75;;;;;-144.24;100.00;114865.94;5061925;28;45581;-71
2024/01/28 00:09:12;;;;;;;;;25.50;20.50;;;;;-144.24;100.00;114865.94;5080152;27;71561;-73
2024/01/28 00:11:37;;;;;;;;;32.00;29.50;;;;;-144.24;100.00;114865.94;5074537;27;45432;-72
2024/01/28 00:14:02;;;;;;;;;31.25;30.75;;;;;-144.24;100.00;114865.94;5077528;27;45533;-72
2024/01/28 00:16:28;;;;;;;;;31.25;26.00;;;;;-144.24;100.00;114865.94;5076609;27;66423;-70
2024/01/28 00:18:58;;;;;;;;;33.75;26.00;;;;;-144.24;100.00;114865.94;5079876;27;68053;-71
2024/01/28 00:21:24;;;;;;;;;30.50;26.75;;;;;-144.24;100.00;114865.94;5088602;27;45256;-71
2024/01/28 00:23:49;;;;;;;;;20.75;17.25;;;;;-144.24;100.00;114865.94;5070954;28;45389;-72
2024/01/28 00:26:15;;;;;;;;;36.25;25.75;;;;;-144.24;100.00;114865.94;5089012;27;45593;-70
2024/01/28 00:28:40;;;;;;;;;30.50;21.25;;;;;-144.24;100.00;114865.94;5086631;27;46803;-73
2024/01/28 00:31:12;;;;;;;;;26.50;19.75;;;;;-144.24;100.00;114865.94;5092388;27;45228;-70
2024/01/28 00:33:37;;;;;;;;;28.75;23.00;;;;;-144.24;100.00;114865.94;5062731;28;45350;-71
2024/01/28 00:36:03;;;;;;;;;32.00;25.00;;;;;-144.24;100.00;114865.94;5083260;27;45258;-71
2024/01/28 00:38:31;;;;;;;;;37.50;25.00;;;;;-144.24;100.00;114865.94;5080528;27;46240;-72
2024/01/28 00:41:00;;;;;;;;;34.00;27.50;;;;;-144.24;100.00;114865.94;5084580;27;45393;-72
2024/01/28 00:43:25;;;;;;;;;30.00;22.00;;;;;-144.24;100.00;114865.94;5058091;28;45371;-71
2024/01/28 00:45:50;;;;;;;;;24.75;23.00;;;;;-144.24;100.00;114865.94;5089070;27;61336;-70
2024/01/28 00:48:16;;;;;;;;;30.75;22.25;;;;;-144.24;100.00;114865.94;5087527;27;68157;-71
2024/01/28 00:50:41;;;;;;;;;31.25;22.75;;;;;-144.24;100.00;114865.94;5091634;27;59142;-70
2024/01/28 00:53:06;;;;;;;;;31.75;23.25;;;;;-144.24;100.00;114865.94;5087983;27;65481;-71
2024/01/28 00:55:32;;;;;;;;;31.25;22.00;;;;;-144.24;100.00;114865.94;5051154;27;67624;-71
2024/01/28 00:57:58;;;;;;;;;36.75;24.25;;;;;-144.24;100.00;114865.94;5096895;27;46557;-71
2024/01/28 01:00:25;;;;;;;;;28.50;24.00;;;;;-144.24;100.00;114865.94;5061819;27;45360;-72
2024/01/28 01:02:52;;;;;;;;;32.25;27.00;;;;;-144.24;100.00;114865.94;5080756;27;45508;-71
2024/01/28 01:05:17;;;;;;;;;29.00;22.25;;;;;-144.24;100.00;114865.94;5079027;27;45381;-72
2024/01/28 01:07:43;;;;;;;;;28.25;21.00;;;;;-144.24;100.00;114865.94;5075951;27;63434;-71
2024/01/28 01:10:08;;;;;;;;;28.75;23.50;;;;;-144.24;100.00;114865.94;5073744;27;45560;-71
2024/01/28 01:12:34;;;;;;;;;27.25;24.25;;;;;-144.24;100.00;114865.94;5055459;28;45531;-71
2024/01/28 01:14:59;;;;;;;;;28.75;23.75;;;;;-144.24;100.00;114865.94;5083052;27;61607;-72
2024/01/28 01:17:24;;;;;;;;;24.00;16.25;;;;;-144.24;100.00;114865.94;5070488;27;71560;-73
2024/01/28 01:19:50;;;;;;;;;27.50;23.75;;;;;-144.24;100.00;114865.94;5087616;27;68518;-73
2024/01/28 01:22:15;;;;;;;;;20.00;19.25;;;;;-144.24;100.00;114865.94;5082597;27;62922;-73
2024/01/28 01:24:40;;;;;;;;;23.00;21.50;;;;;-144.24;100.00;114865.94;5044425;27;57198;-72
2024/01/28 01:27:06;;;;;;;;;24.25;21.50;;;;;-144.24;100.00;114865.94;5089046;27;45414;-70
2024/01/28 01:29:31;;;;;;;;;27.75;21.00;;;;;-144.24;100.00;114865.94;5090007;27;45398;-71
2024/01/28 01:31:57;;;;;;;;;21.50;20.00;;;;;-144.24;100.00;114865.94;5076822;27;66578;-73
2024/01/28 01:34:22;;;;;;;;;30.00;22.25;;;;;-144.24;100.00;114865.94;5058924;28;61509;-72
2024/01/28 01:36:47;;;;;;;;;29.25;23.00;;;;;-144.24;100.00;114865.94;5075769;27;70063;-71
2024/01/28 01:39:14;;;;;;;;;20.75;15.00;;;;;-144.24;100.00;114865.94;5081687;27;45520;-72
2024/01/28 01:41:39;;;;;;;;;24.25;21.00;;;;;-144.24;100.00;114865.94;5074681;27;45386;-71
2024/01/28 01:44:04;;;;;;;;;18.50;17.00;;;;;-144.24;100.00;114865.94;5081252;27;49384;-71
2024/01/28 01:46:30;;;;;;;;;27.75;21.75;;;;;-144.24;100.00;114865.94;5058624;28;47481;-71
2024/01/28 01:48:57;;;;;;;;;26.50;21.25;;;;;-144.24;100.00;114865.94;5067353;27;45497;-71
2024/01/28 01:51:23;;;;;;;;;28.50;23.75;;;;;-144.24;100.00;114865.94;5066720;28;45756;-70
2024/01/28 01:53:48;;;;;;;;;25.00;20.75;;;;;-144.24;100.00;114865.94;5087729;27;45606;-71
2024/01/28 01:56:14;;;;;;;;;21.75;20.25;;;;;-144.24;100.00;114865.94;5079916;27;45871;-71
2024/01/28 01:58:39;;;;;;;;;27.00;19.75;;;;;-144.24;100.00;114865.94;5092679;27;60952;-70
2024/01/28 02:01:05;;;;;;;;;21.25;20.25;;;;;-144.24;100.00;114865.94;5075971;27;65098;-72
2024/01/28 02:03:30;;;;;;;;;32.00;22.00;;;;;-144.24;100.00;114865.94;5058885;27;62568;-72
2024/01/28 02:05:55;;;;;;;;;29.00;23.25;;;;;-144.24;100.00;114865.94;5075665;27;70497;-70
2024/01/28 02:08:21;;;;;;;;;21.50;20.00;;;;;-144.24;100.00;114865.94;5079968;27;45539;-70
2024/01/28 02:10:46;;;;;;;;;23.00;22.50;;;;;-144.24;100.00;114865.94;5077607;27;45425;-71
2024/01/28 02:13:12;;;;;;;;;20.00;19.75;;;;;-144.24;100.00;114865.94;5071242;27;45434;-71
2024/01/28 02:15:38;;;;;;;;;22.25;20.25;;;;;-144.24;100.00;114865.94;5062912;28;46825;-71
2024/01/28 02:18:04;;;;;;;;;24.25;20.50;;;;;-144.24;100.00;114865.94;5083874;27;45444;-70
2024/01/28 02:20:29;;;;;;;;;32.50;24.25;;;;;-144.24;100.00;114865.94;5075395;27;45327;-73
2024/01/28 02:22:56;;;;;;;;;23.00;21.25;;;;;-144.24;100.00;114865.94;5088403;27;45453;-71
2024/01/28 02:25:21;;;;;;;;;33.00;23.50;;;;;-144.24;100.00;114865.94;5068972;27;46435;-70
2024/01/28 02:27:46;;;;;;;;;27.75;21.00;;;;;-144.24;100.00;114865.94;5078729;27;69914;-71
2024/01/28 02:30:13;;;;;;;;;23.75;19.50;;;;;-144.24;100.00;114865.94;5086567;27;59545;-69
2024/01/28 02:32:46;;;;;;;;;21.25;20.00;;;;;-144.24;100.00;114865.94;5077405;27;45615;-71
2024/01/28 02:35:12;;;;;;;;;29.50;22.50;;;;;-144.24;100.00;114865.94;5051042;28;46008;-70
2024/01/28 02:37:37;;;;;;;;;22.75;19.75;;;;;-144.24;100.00;114865.94;5063102;27;64760;-71
2024/01/28 02:40:04;;;;;;;;;25.75;19.75;;;;;-144.24;100.00;114865.94;5079038;27;64731;-70
2024/01/28 02:42:29;;;;;;;;;27.00;20.50;;;;;-144.24;100.00;114865.94;5085548;27;45540;-70
2024/01/28 02:44:54;;;;;;;;;27.75;24.00;;;;;-144.24;100.00;114865.94;5063602;28;45933;-70
2024/01/28 02:47:20;;;;;;;;;19.25;18.25;;;;;-144.24;100.00;114865.94;5086265;27;68281;-72
2024/01/28 02:49:45;;;;;;;;;23.50;20.00;;;;;-144.24;100.00;114865.94;5088316;27;45417;-72
2024/01/28 02:52:10;;;;;;;;;22.00;17.00;;;;;-144.24;100.00;114865.94;5068720;27;45415;-71
2024/01/28 02:54:36;;;;;;;;;21.00;17.50;;;;;-144.24;100.00;114865.94;5073835;27;45823;-73
2024/01/28 02:57:01;;;;;;;;;20.75;17.50;;;;;-144.24;100.00;114865.94;5081598;27;46702;-74
2024/01/28 02:59:27;;;;;;;;;31.75;22.25;;;;;-144.24;100.00;114865.94;5059397;28;51171;-70
2024/01/28 03:01:52;;;;;;;;;22.00;20.25;;;;;-144.24;100.00;114865.94;5086157;27;45490;-71
2024/01/28 03:04:17;;;;;;;;;23.25;20.75;;;;;-144.24;100.00;114865.94;5087610;27;45969;-70
2024/01/28 03:06:43;;;;;;;;;23.75;21.50;;;;;-144.24;100.00;114865.94;5078698;27;62236;-72
2024/01/28 03:09:08;;;;;;;;;21.25;17.25;;;;;-144.24;100.00;114865.94;5069150;27;45413;-73
2024/01/28 03:11:35;;;;;;;;;23.50;18.75;;;;;-144.24;100.00;114865.94;5075519;27;45519;-71
2024/01/28 03:14:00;;;;;;;;;21.25;19.25;;;;;-144.24;100.00;114865.94;5078978;27;45486;-70
2024/01/28 03:16:25;;;;;;;;;24.00;19.50;;;;;-144.24;100.00;114865.94;5081429;27;60988;-72
2024/01/28 03:18:51;;;;;;;;;22.00;18.50;;;;;-144.24;100.00;114865.94;5076085;27;64490;-69
2024/01/28 03:21:16;;;;;;;;;25.50;22.25;;;;;-144.24;100.00;114865.94;5086653;27;45362;-72
2024/01/28 03:23:41;;;;;;;;;26.00;19.75;;;;;-144.24;100.00;114865.94;5075392;27;71814;-73
2024/01/28 03:26:09;;;;;;;;;22.75;18.25;;;;;-144.24;100.00;114865.94;5076691;27;45351;-71
2024/01/28 03:28:35;;;;;;;;;15.75;15.75;;;;;-144.24;100.00;114865.94;5058029;28;45339;-71
2024/01/28 03:31:00;;;;;;;;;19.50;16.75;;;;;-144.24;100.00;114865.94;5085713;27;65377;-70
2024/01/28 03:33:25;;;;;;;;;22.50;19.00;;;;;-144.24;100.00;114865.94;5080054;27;69934;-73
2024/01/28 03:35:51;;;;;;;;;20.75;16.50;;;;;-144.24;100.00;114865.94;5079665;27;67324;-71
2024/01/28 03:38:17;;;;;;;;;23.00;18.25;;;;;-144.24;100.00;114865.94;5060189;28;60455;-71
2024/01/28 03:40:43;;;;;;;;;23.25;19.00;;;;;-144.24;100.00;114865.94;5074853;27;45344;-70
2024/01/28 03:43:08;;;;;;;;;22.25;20.25;;;;;-144.24;100.00;114865.94;5059534;28;46099;-70
2024/01/28 03:45:34;;;;;;;;;19.75;15.50;;;;;-144.24;100.00;114865.94;5084791;27;65039;-71
2024/01/28 03:48:00;;;;;;;;;22.75;19.25;;;;;-144.24;100.00;114865.94;5085046;27;67587;-71
2024/01/28 03:50:25;;;;;;;;;25.50;19.50;;;;;-144.24;100.00;114865.94;5081644;27;45860;-71
2024/01/28 03:52:50;;;;;;;;;17.50;15.50;;;;;-144.24;100.00;114865.94;5065335;27;72153;-71
2024/01/28 03:55:16;;;;;;;;;25.50;18.25;;;;;-144.24;100.00;114865.94;5069413;27;65680;-72
2024/01/28 03:57:43;;;;;;;;;19.00;16.25;;;;;-144.24;100.00;114865.94;5058425;28;45383;-70
2024/01/28 04:00:11;;;;;;;;;20.25;16.25;;;;;-144.24;100.00;114865.94;5078556;27;45638;-71
2024/01/28 04:02:37;;;;;;;;;18.00;14.25;;;;;-144.24;100.00;114865.94;5054549;28;46577;-73
2024/01/28 04:05:03;;;;;;;;;17.25;13.50;;;;;-144.24;100.00;114865.94;5060111;27;45413;-72
2024/01/28 04:07:29;;;;;;;;;22.00;16.25;;;;;-144.24;100.00;114865.94;5058750;28;45362;-71
2024/01/28 04:09:54;;;;;;;;;16.25;11.75;;;;;-144.24;100.00;114865.94;5068578;27;45395;-74
2024/01/28 04:12:20;;;;;;;;;15.00;13.25;;;;;-144.24;100.00;114865.94;5061995;28;45561;-73
2024/01/28 04:14:45;;;;;;;;;17.75;17.00;;;;;-144.24;100.00;114865.94;5078185;27;56678;-72
2024/01/28 04:17:10;;;;;;;;;19.50;16.00;;;;;-144.24;100.00;114865.94;5068237;28;45380;-70
2024/01/28 04:19:36;;;;;;;;;23.75;19.00;;;;;-144.24;100.00;114865.94;5074518;27;45284;-73
2024/01/28 04:22:01;;;;;;;;;23.50;18.50;;;;;-144.24;100.00;114865.94;5065608;28;66838;-74
2024/01/28 04:24:26;;;;;;;;;27.00;20.00;;;;;-144.24;100.00;114865.94;5074525;27;45505;-71
2024/01/28 04:26:53;;;;;;;;;21.00;16.50;;;;;-144.24;100.00;114865.94;5068598;27;63677;-70
2024/01/28 04:29:18;;;;;;;;;15.50;13.00;;;;;-144.24;100.00;114865.94;5084868;27;45352;-70
2024/01/28 04:31:44;;;;;;;;;23.00;16.75;;;;;-144.24;100.00;114865.94;5091392;27;46852;-73
2024/01/28 04:34:10;;;;;;;;;15.75;13.75;;;;;-144.24;100.00;114865.94;5081539;27;45453;-70
2024/01/28 04:36:36;;;;;;;;;25.00;19.75;;;;;-144.24;100.00;114865.94;5080143;27;45374;-71
2024/01/28 04:39:02;;;;;;;;;19.00;14.50;;;;;-144.24;100.00;114865.94;5060391;28;46367;-70
2024/01/28 04:41:28;;;;;;;;;15.50;14.25;;;;;-144.24;100.00;114865.94;5067018;28;46441;-72
2024/01/28 04:43:53;;;;;;;;;20.00;14.00;;;;;-144.24;100.00;114865.94;5080487;27;45264;-71
2024/01/28 04:46:18;;;;;;;;;16.50;15.25;;;;;-144.24;100.00;114865.94;5086319;27;57144;-71
2024/01/28 04:48:44;;;;;;;;;17.25;15.50;;;;;-144.24;100.00;114865.94;5078882;27;55141;-73
2024/01/28 04:51:10;;;;;;;;;23.50;18.50;;;;;-144.24;100.00;114865.94;5067039;27;45523;-70
2024/01/28 04:53:35;;;;;;;;;20.25;17.25;;;;;-144.24;100.00;114865.94;5066505;27;45296;-71
2024/01/28 04:56:01;;;;;;;;;16.50;14.00;;;;;-144.24;100.00;114865.94;5060784;28;45304;-70
2024/01/28 04:58:26;;;;;;;;;16.25;12.00;;;;;-144.24;100.00;114865.94;5065232;27;45645;-71
2024/01/28 05:00:51;;;;;;;;;17.00;13.00;;;;;-144.24;100.00;114865.94;5085101;27;63771;-71
2024/01/28 05:03:17;;;;;;;;;17.75;13.00;;;;;-144.24;100.00;114865.94;5063357;27;67076;-73
2024/01/28 05:05:42;;;;;;;;;16.75;14.50;;;;;-144.24;100.00;114865.94;5081077;27;60889;-72
2024/01/28 05:08:07;;;;;;;;;22.75;16.50;;;;;-144.24;100.00;114865.94;5078964;27;45465;-72
2024/01/28 05:10:33;;;;;;;;;19.75;15.75;;;;;-144.24;100.00;114865.94;5079168;27;45929;-70
2024/01/28 05:12:58;;;;;;;;;21.00;15.25;;;;;-144.24;100.00;114865.94;5062660;27;66351;-71
2024/01/28 05:15:23;;;;;;;;;14.50;12.00;;;;;-144.24;100.00;114865.94;5066077;28;64172;-70
2024/01/28 05:17:50;;;;;;;;;13.25;8.00;;;;;-144.24;100.00;114865.94;5052527;27;45565;-70
2024/01/28 05:20:16;;;;;;;;;20.75;18.25;;;;;-144.24;100.00;114865.94;5086755;27;46404;-71
2024/01/28 05:22:42;;;;;;;;;16.25;15.50;;;;;-144.24;100.00;114865.94;5072810;27;45357;-71
2024/01/28 05:25:09;;;;;;;;;18.25;16.50;;;;;-144.24;100.00;114865.94;5053077;28;45484;-70
2024/01/28 05:27:35;;;;;;;;;16.75;13.00;;;;;-144.24;100.00;114865.94;5063711;27;45636;-73
2024/01/28 05:30:01;;;;;;;;;16.75;12.75;;;;;-144.24;100.00;114865.94;5067008;28;46793;-70
2024/01/28 05:32:26;;;;;;;;;17.25;11.50;;;;;-144.24;100.00;114865.94;5063825;27;67035;-70
2024/01/28 05:34:51;;;;;;;;;17.50;12.50;;;;;-144.24;100.00;114865.94;5084122;27;45295;-73
2024/01/28 05:37:17;;;;;;;;;19.75;14.25;;;;;-144.24;100.00;114865.94;5066665;27;65642;-72
2024/01/28 05:39:42;;;;;;;;;17.75;12.50;;;;;-144.24;100.00;114865.94;5067121;28;45616;-70
2024/01/28 05:42:08;;;;;;;;;24.50;15.25;;;;;-144.24;100.00;114865.94;5085192;27;45478;-71
2024/01/28 05:44:33;;;;;;;;;20.00;15.50;;;;;-144.24;100.00;114865.94;5091921;27;65168;-70
2024/01/28 05:46:58;;;;;;;;;21.75;12.25;;;;;-144.24;100.00;114865.94;5067906;27;46823;-70
2024/01/28 05:49:24;;;;;;;;;15.75;15.00;;;;;-144.24;100.00;114865.94;5065072;28;71420;-71
2024/01/28 05:51:50;;;;;;;;;23.75;17.00;;;;;-144.24;100.00;114865.94;5066143;27;45389;-71
2024/01/28 05:54:15;;;;;;;;;19.25;17.00;;;;;-144.24;100.00;114865.94;5067884;27;45536;-70
2024/01/28 05:56:41;;;;;;;;;16.00;15.00;;;;;-144.24;100.00;114865.94;5073256;27;46769;-72
2024/01/28 05:59:06;;;;;;;;;14.00;12.25;;;;;-144.24;100.00;114865.94;5080246;27;46805;-71
2024/01/28 06:01:32;;;;;;;;;15.25;11.75;;;;;-144.24;100.00;114865.94;5078056;27;69183;-71
2024/01/28 06:03:57;;;;;;;;;16.75;16.75;;;;;-144.24;100.00;114865.94;5070419;27;49052;-73
2024/01/28 06:06:22;;;;;;;;;19.75;13.25;;;;;-144.24;100.00;114865.94;5083609;27;64258;-70
2024/01/28 06:08:47;;;;;;;;;17.75;12.25;;;;;-144.24;100.00;114865.94;5072393;27;71550;-71
2024/01/28 06:11:13;;;;;;;;;12.00;12.00;;;;;-144.24;100.00;114865.94;5079623;27;64738;-72
2024/01/28 06:13:38;;;;;;;;;15.00;11.50;;;;;-144.24;100.00;114865.94;5071875;27;61967;-71
2024/01/28 06:16:06;;;;;;;;;14.25;12.00;;;;;-144.24;100.00;114865.94;5066713;27;66026;-70
2024/01/28 06:18:31;;;;;;;;;16.00;14.75;;;;;-144.24;100.00;114865.94;5081602;27;46705;-72
2024/01/28 06:20:57;;;;;;;;;15.00;8.00;;;;;-144.24;100.00;114865.94;5085777;27;45497;-73
2024/01/28 06:23:22;;;;;;;;;15.50;13.50;;;;;-144.24;100.00;114865.94;5077317;27;58041;-71
2024/01/28 06:25:47;;;;;;;;;19.50;12.25;;;;;-144.24;100.00;114865.94;5072849;27;45482;-71
2024/01/28 06:28:13;;;;;;;;;12.75;10.50;;;;;-144.24;100.00;114865.94;5074912;27;73214;-71
2024/01/28 06:30:38;;;;;;;;;17.75;14.00;;;;;-144.24;100.00;114865.94;5069783;28;45394;-73
2024/01/28 06:33:04;;;;;;;;;12.75;12.50;;;;;-144.24;100.00;114865.94;5105115;22;46331;-71
2024/01/28 06:35:30;;;;;;;;;12.00;12.00;;;;;-144.24;100.00;114865.94;5070850;27;45387;-71
2024/01/28 06:37:55;;;;;;;;;13.00;12.00;;;;;-144.24;100.00;114865.94;5069528;27;47071;-71
2024/01/28 06:40:20;;;;;;;;;16.50;12.25;;;;;-144.24;100.00;114865.94;5097293;27;45348;-72
2024/01/28 06:42:46;;;;;;;;;13.25;11.50;;;;;-144.24;100.00;114865.94;5080931;27;68257;-72
2024/01/28 06:45:11;;;;;;;;;19.25;13.75;;;;;-144.24;100.00;114865.94;5097766;27;45556;-72
2024/01/28 06:47:36;;;;;;;;;19.50;13.00;;;;;-144.24;100.00;114865.94;5078768;27;46564;-71
2024/01/28 06:50:02;;;;;;;;;18.50;12.75;;;;;-144.24;100.00;114865.94;5095287;27;45518;-72
2024/01/28 06:52:28;;;;;;;;;14.25;12.00;;;;;-144.24;100.00;114865.94;5094538;27;45460;-76
2024/01/28 06:54:53;;;;;;;;;16.00;12.00;;;;;-144.24;100.00;114865.94;5094201;27;45947;-72
2024/01/28 06:57:19;;;;;;;;;19.75;12.25;;;;;-144.24;100.00;114865.94;5066661;27;47622;-74
2024/01/28 06:59:45;;;;;;;;;14.00;11.50;;;;;-144.24;100.00;114865.94;5072204;27;45529;-75
2024/01/28 07:02:11;;;;;;;;;14.25;10.75;;;;;-144.24;100.00;114865.94;5093390;27;45368;-72
2024/01/28 07:04:36;;;;;;;;;16.75;12.25;;;;;-144.24;100.00;114865.94;5068913;27;45246;-72
2024/01/28 07:07:02;;;;;;;;;12.75;12.75;;;;;-144.24;100.00;114865.94;5070380;27;46439;-73
2024/01/28 07:09:27;;;;;;;;;12.50;11.75;;;;;-144.24;100.00;114865.94;5092840;27;45216;-71
2024/01/28 07:11:53;;;;;;;;;9.00;9.00;;;;;-144.24;100.00;114865.94;5074492;27;45503;-72
2024/01/28 07:14:18;;;;;;;;;10.00;6.50;;;;;-144.24;100.00;114865.94;5092359;27;59493;-72
2024/01/28 07:16:44;;;;;;;;;17.75;8.75;;;;;-144.24;100.00;114865.94;5093473;27;46121;-73
2024/01/28 07:19:09;;;;;;;;;13.50;12.50;;;;;-144.24;100.00;114865.94;5060266;28;67233;-74
2024/01/28 07:21:34;;;;;;;;;12.50;11.00;;;;;-144.24;100.00;114865.94;5086696;27;66778;-72
2024/01/28 07:24:00;;;;;;;;;9.75;9.00;;;;;-144.24;100.00;114865.94;5091276;27;64425;-71
2024/01/28 07:26:25;;;;;;;;;11.50;9.50;;;;;-144.24;100.00;114865.94;5072143;27;47463;-72
2024/01/28 07:28:51;;;;;;;;;18.50;10.50;;;;;-144.24;100.00;114865.94;5089883;27;45198;-71
2024/01/28 07:31:16;;;;;;;;;9.00;9.00;;;;;-144.24;100.00;114865.94;5072623;27;45516;-71
2024/01/28 07:33:42;;;;;;;;;9.25;9.25;;;;;-144.24;100.00;114865.94;5061955;28;64995;-72
2024/01/28 07:36:08;;;;;;;;;11.50;8.00;;;;;-144.24;100.00;114865.94;5068636;27;46488;-73
2024/01/28 07:38:33;;;;;;;;;9.75;9.75;;;;;-144.24;100.00;114865.94;5066027;27;45511;-72
2024/01/28 07:40:59;;;;;;;;;12.75;8.25;;;;;-144.24;100.00;114865.94;5061034;27;64680;-72
2024/01/28 07:43:24;;;;;;;;;13.00;11.75;;;;;-144.24;100.00;114865.94;5066392;28;45548;-72
2024/01/28 07:45:50;;;;;;;;;8.75;8.75;;;;;-144.24;100.00;114865.94;5070317;28;45480;-72
2024/01/28 07:48:16;;;;;;;;;16.25;11.00;;;;;-144.24;100.00;114865.94;5059543;27;46316;-71
2024/01/28 07:50:42;;;;;;;;;12.75;12.00;;;;;-144.24;100.00;114865.94;5062319;28;45433;-71
2024/01/28 07:53:07;;;;;;;;;14.75;13.00;;;;;-144.24;100.00;114865.94;5068678;28;45455;-71
2024/01/28 07:55:33;;;;;;;;;13.25;11.50;;;;;-144.24;100.00;114865.94;5066883;28;46544;-72
2024/01/28 07:57:58;;;;;;;;;12.50;9.00;;;;;-144.24;100.00;114865.94;5065190;28;68835;-70
2024/01/28 08:00:25;;;;;;;;;10.25;9.50;;;;;-144.24;100.00;114865.94;5063436;28;45461;-71
2024/01/28 08:02:51;;;;;;;;;17.75;13.50;;;;;-144.24;100.00;114865.94;5060263;28;45457;-71
2024/01/28 08:05:16;;;;;;;;;20.50;15.75;;;;;-144.24;100.00;114865.94;5057905;28;45954;-71
2024/01/28 08:07:42;;;;;;;;;20.25;16.50;;;;;-144.24;100.00;114865.94;5064718;28;72361;-70
2024/01/28 08:10:07;;;;;;;;;20.00;15.75;;;;;-144.24;100.00;114865.94;5069979;28;45493;-71
2024/01/28 08:12:33;;;;;;;;;15.75;15.00;;;;;-144.24;100.00;114865.94;5074175;28;45422;-70
2024/01/28 08:14:58;;;;;;;;;16.75;13.75;;;;;-144.24;100.00;114865.94;5065319;28;45692;-71
2024/01/28 08:17:24;;;;;;;;;15.50;15.00;;;;;-144.24;100.00;114865.94;5071317;28;61756;-72
2024/01/28 08:19:49;;;;;;;;;16.25;12.50;;;;;-144.24;100.00;114865.94;5064740;27;45507;-72
2024/01/28 08:22:14;;;;;;;;;16.50;15.75;;;;;-144.24;100.00;114865.94;5060294;28;62223;-76
2024/01/28 08:24:40;;;;;;;;;21.00;16.25;;;;;-144.24;100.00;114865.94;5067678;27;45761;-73
2024/01/28 08:27:05;;;;;;;;;21.25;16.00;;;;;-144.24;100.00;114865.94;5069710;28;59140;-72
2024/01/28 08:29:31;;;;;;;;;17.75;16.00;;;;;-144.24;100.00;114865.94;5073842;27;45486;-72
2024/01/28 08:31:57;;;;;;;;;16.75;16.25;;;;;-144.24;100.00;114865.94;5059562;28;45449;-73
2024/01/28 08:34:23;;;;;;;;;19.75;17.00;;;;;-144.24;100.00;114865.94;5069013;27;46591;-76
2024/01/28 08:36:48;;;;;;;;;18.75;15.00;;;;;-144.24;100.00;114865.94;5076494;27;45473;-72
2024/01/28 08:39:14;;;;;;;;;19.50;13.75;;;;;-144.24;100.00;114865.94;5077504;27;53180;-75
2024/01/28 08:41:39;;;;;;;;;15.00;14.50;;;;;-144.24;100.00;114865.94;5091706;27;45568;-73
2024/01/28 08:44:05;;;;;;;;;20.50;18.25;;;;;-144.24;100.00;114865.94;5070497;27;47088;-71
2024/01/28 08:46:31;;;;;;;;;20.50;20.00;;;;;-144.24;100.00;114865.94;5063569;27;45665;-73
2024/01/28 08:48:56;;;;;;;;;26.75;17.75;;;;;-144.24;100.00;114865.94;5077593;27;45575;-70
2024/01/28 08:51:21;;;;;;;;;19.00;15.25;;;;;-144.24;100.00;114865.94;5071252;27;60906;-72
2024/01/28 08:53:47;;;;;;;;;17.75;15.75;;;;;-144.24;100.00;114865.94;5082963;27;65973;-73
2024/01/28 08:56:12;;;;;;;;;19.75;18.00;;;;;-144.24;100.00;114865.94;5072224;27;66107;-72
2024/01/28 08:58:37;;;;;;;;;19.00;16.00;;;;;-144.24;100.00;114865.94;5098792;27;45470;-74
2024/01/28 09:01:03;;;;;;;;;21.25;16.00;;;;;-144.24;100.00;114865.94;5097868;27;45452;-71
2024/01/28 09:03:28;;;;;;;;;23.75;19.75;;;;;-144.24;100.00;114865.94;5074476;27;47930;-72
2024/01/28 09:05:54;;;;;;;;;22.75;21.25;;;;;-144.24;100.00;114865.94;5079936;27;62143;-71
2024/01/28 09:08:19;;;;;;;;;24.25;19.25;;;;;-144.24;100.00;114865.94;5079065;27;45413;-73
2024/01/28 09:10:45;;;;;;;;;19.75;18.50;;;;;-144.24;100.00;114865.94;5088053;27;45406;-73
2024/01/28 09:13:10;;;;;;;;;29.75;25.00;;;;;-144.24;100.00;114865.94;5098633;27;46729;-72
2024/01/28 09:15:35;;;;;;;;;29.00;24.75;;;;;-144.24;100.00;114865.94;5099089;27;45407;-74
2024/01/28 09:18:02;;;;;;;;;24.00;16.50;;;;;-144.24;100.00;114865.94;5095016;27;65074;-74
2024/01/28 09:20:27;;;;;;;;;26.00;21.00;;;;;-144.24;100.00;114865.94;5087123;27;45793;-72
2024/01/28 09:22:52;;;;;;;;;26.25;19.00;;;;;-144.24;100.00;114865.94;5091152;27;51771;-72
2024/01/28 09:25:18;;;;;;;;;26.25;17.75;;;;;-144.24;100.00;114865.94;5092406;27;45514;-72
2024/01/28 09:27:48;;;;;;;;;23.50;17.00;;;;;-144.24;100.00;114865.94;5075150;27;59438;-72
2024/01/28 09:30:13;;;;;;;;;25.50;19.75;;;;;-144.24;100.00;114865.94;5078701;27;45573;-72
2024/01/28 09:32:39;;;;;;;;;17.75;16.25;;;;;-144.24;100.00;114865.94;5077174;27;45521;-73
2024/01/28 09:35:05;;;;;;;;;16.75;15.00;;;;;-144.24;100.00;114865.94;5087550;27;45399;-71
2024/01/28 09:37:30;;;;;;;;;18.25;15.25;;;;;-144.24;100.00;114865.94;5093756;27;45583;-73
2024/01/28 09:39:55;;;;;;;;;11.25;10.00;;;;;-144.24;100.00;114865.94;5088866;27;56842;-71
2024/01/28 09:42:31;;;;;;;;;19.00;16.25;;;;;-144.24;100.00;114865.94;5077250;27;46088;-72
2024/01/28 09:44:58;;;;;;;;;18.00;12.75;;;;;-144.24;100.00;114865.94;5087322;27;45644;-72
2024/01/28 09:47:24;;;;;;;;;19.50;13.25;;;;;-144.24;100.00;114865.94;5059211;27;45655;-71
2024/01/28 09:49:50;;;;;;;;;16.00;15.00;;;;;-144.24;100.00;114865.94;5073458;27;45477;-71
2024/01/28 09:52:16;;;;;;;;;21.25;16.50;;;;;-144.24;100.00;114865.94;5089726;27;45878;-71
2024/01/28 09:54:46;;;;;;;;;23.00;14.75;;;;;-144.24;100.00;114865.94;5092398;27;45632;-73
2024/01/28 09:57:12;;;;;;;;;17.50;15.50;;;;;-144.24;100.00;114865.94;5076350;27;45373;-71
2024/01/28 09:59:37;;;;;;;;;17.25;13.75;;;;;-144.24;100.00;114865.94;5062367;27;45714;-72
2024/01/28 10:02:04;;;;;;;;;17.25;15.75;;;;;-144.24;100.00;114865.94;5059638;28;47801;-71
2024/01/28 10:04:30;;;;;;;;;23.25;16.00;;;;;-144.24;100.00;114865.94;5092695;27;45553;-72
2024/01/28 10:06:59;;;;;;;;;21.75;21.25;;;;;-144.24;100.00;114865.94;5074866;27;45490;-71
2024/01/28 10:09:26;;;;;;;;;22.00;18.25;;;;;-144.24;100.00;114865.94;5056466;27;45677;-70
2024/01/28 10:11:51;;;;;;;;;24.25;17.75;;;;;-144.24;100.00;114865.94;5091127;27;46565;-72
2024/01/28 10:14:17;;;;;;;;;15.75;14.25;;;;;-144.24;100.00;114865.94;5093626;27;54171;-72
2024/01/28 10:16:45;;;;;;;;;15.75;11.75;;;;;-144.24;100.00;114865.94;5078854;27;45407;-71
2024/01/28 10:19:11;;;;;;;;;20.25;15.00;;;;;-144.24;100.00;114865.94;5079264;27;45602;-73
2024/01/28 10:21:36;;;;;;;;;16.25;13.50;;;;;-144.24;100.00;114865.94;5090687;27;74895;-71
2024/01/28 10:24:02;;;;;;;;;15.75;12.25;;;;;-144.24;100.00;114865.94;5096609;27;45588;-72
2024/01/28 10:26:27;;;;;;;;;15.00;15.00;;;;;-144.24;100.00;114865.94;5096830;27;45495;-72
2024/01/28 10:28:53;;;;;;;;;17.25;14.75;;;;;-144.24;100.00;114865.94;5076493;27;45404;-74
2024/01/28 10:31:22;;;;;;;;;21.00;17.00;;;;;-144.24;100.00;114865.94;5079447;27;47263;-72
2024/01/28 10:33:48;;;;;;;;;19.50;16.00;;;;;-144.24;100.00;114865.94;5070812;27;45309;-72
2024/01/28 10:36:16;;;;;;;;;23.00;18.25;;;;;-144.24;100.00;114865.94;5089184;27;45550;-72
2024/01/28 10:38:45;;;;;;;;;17.00;15.50;;;;;-144.24;100.00;114865.94;5066030;27;45594;-73
2024/01/28 10:41:15;;;;;;;;;14.25;13.25;;;;;-144.24;100.00;114865.94;5078397;27;46522;-72